createdAt,value
2022-09-13T00:01:16.181Z,21.00
2022-09-13T00:03:43.017Z,21.10
2022-09-13T00:06:13.179Z,21.10
2022-09-13T00:08:40.954Z,21.20
2022-09-13T00:11:14.383Z,21.30
2022-09-13T00:13:41.279Z,21.50
2022-09-13T00:16:17.309Z,21.60
2022-09-13T00:18:44.395Z,21.50
2022-09-13T00:21:14.145Z,21.10
2022-09-13T00:23:44.694Z,21.00
2022-09-13T00:26:14.747Z,20.80
2022-09-13T00:28:42.289Z,20.80
2022-09-13T00:31:10.159Z,21.00
2022-09-13T00:33:37.859Z,21.10
2022-09-13T00:36:06.824Z,21.10
2022-09-13T00:38:37.940Z,21.10
2022-09-13T00:41:07.918Z,21.30
2022-09-13T00:43:51.181Z,21.20
2022-09-13T00:46:21.760Z,21.20
2022-09-13T00:48:51.133Z,21.20
2022-09-13T00:51:18.219Z,21.30
2022-09-13T00:53:51.055Z,20.80
2022-09-13T00:56:33.732Z,20.50
2022-09-13T00:59:13.047Z,20.50
2022-09-13T01:01:52.153Z,20.30
2022-09-13T01:04:22.579Z,20.20
2022-09-13T01:06:52.548Z,20.20
2022-09-13T01:09:19.336Z,20.10
2022-09-13T01:12:08.347Z,20.10
2022-09-13T01:14:36.314Z,21.50
2022-09-13T01:17:04.024Z,19.80
2022-09-13T01:23:51.297Z,19.60
2022-09-13T01:26:20.931Z,19.40
2022-09-13T01:32:46.988Z,19.60
2022-09-13T01:35:17.003Z,18.90
2022-09-13T01:41:55.457Z,19.80
2022-09-13T01:44:30.887Z,19.70
2022-09-13T01:47:07.603Z,19.80
2022-09-13T01:50:07.459Z,19.90
2022-09-13T01:52:57.037Z,20.00
2022-09-13T01:55:35.715Z,19.90
2022-09-13T01:58:23.784Z,19.80
2022-09-13T02:01:11.172Z,19.80
2022-09-13T02:03:55.735Z,19.70
2022-09-13T02:06:30.369Z,19.50
2022-09-13T02:09:02.702Z,19.40
2022-09-13T02:11:30.739Z,19.60
2022-09-13T02:14:11.744Z,19.60
2022-09-13T02:16:45.656Z,19.60
2022-09-13T02:19:19.038Z,19.60
2022-09-13T02:21:51.696Z,19.70
2022-09-13T02:24:26.500Z,19.70
2022-09-13T02:26:56.320Z,19.40
2022-09-13T02:29:28.907Z,18.90
2022-09-13T02:31:58.657Z,18.50
2022-09-13T02:34:32.922Z,18.40
2022-09-13T02:37:02.986Z,18.30
2022-09-13T02:39:31.851Z,18.50
2022-09-13T02:42:12.308Z,18.10
2022-09-13T02:48:37.203Z,18.50
2022-09-13T02:51:08.104Z,18.80
2022-09-13T02:53:44.202Z,18.80
2022-09-13T02:56:32.756Z,18.60
2022-09-13T02:59:23.761Z,18.30
2022-09-13T03:02:07.898Z,18.00
2022-09-13T03:04:35.432Z,17.80
2022-09-13T03:07:04.528Z,17.70
2022-09-13T03:09:32.747Z,17.80
2022-09-13T03:12:22.720Z,17.80
2022-09-13T03:14:55.724Z,17.80
2022-09-13T03:17:25.475Z,17.90
2022-09-13T03:19:55.456Z,17.90
2022-09-13T03:22:37.664Z,17.70
2022-09-13T03:25:19.747Z,17.40
2022-09-13T03:27:57.543Z,17.20
2022-09-13T03:30:24.478Z,17.10
2022-09-13T03:33:06.691Z,17.20
2022-09-13T03:35:56.982Z,17.30
2022-09-13T03:38:45.495Z,17.10
2022-09-13T03:41:18.533Z,16.70
2022-09-13T03:43:58.758Z,16.60
2022-09-13T03:46:39.940Z,16.60
2022-09-13T03:49:10.523Z,16.60
2022-09-13T03:51:38.552Z,16.50
2022-09-13T03:54:09.765Z,16.50
2022-09-13T03:56:36.639Z,16.50
2022-09-13T03:59:03.753Z,16.30
2022-09-13T04:01:31.087Z,16.30
2022-09-13T04:03:59.013Z,16.40
2022-09-13T04:06:25.757Z,16.20
2022-09-13T04:08:52.507Z,16.50
2022-09-13T04:11:21.341Z,16.30
2022-09-13T04:13:48.243Z,16.10
2022-09-13T04:16:15.405Z,16.00
2022-09-13T04:18:42.228Z,15.70
2022-09-13T04:21:09.252Z,15.80
2022-09-13T04:23:35.977Z,15.90
2022-09-13T04:26:04.700Z,15.90
2022-09-13T04:28:31.700Z,15.80
2022-09-13T04:30:58.571Z,14.80
2022-09-13T04:33:25.392Z,16.20
2022-09-13T04:35:58.845Z,16.40
2022-09-13T04:38:26.408Z,16.60
2022-09-13T04:40:57.149Z,16.60
2022-09-13T04:43:24.552Z,16.60
2022-09-13T04:45:51.800Z,16.60
2022-09-13T04:48:18.791Z,16.90
2022-09-13T04:50:46.011Z,17.20
2022-09-13T04:53:14.030Z,16.90
2022-09-13T04:55:40.836Z,16.90
2022-09-13T04:58:07.649Z,16.80
2022-09-13T05:00:34.474Z,16.60
2022-09-13T05:03:01.892Z,16.40
2022-09-13T05:05:29.335Z,16.10
2022-09-13T05:07:56.263Z,14.40
2022-09-13T05:10:23.182Z,15.60
2022-09-13T05:12:49.946Z,15.40
2022-09-13T05:15:16.865Z,15.30
2022-09-13T05:17:43.624Z,15.40
2022-09-13T05:20:10.903Z,15.10
2022-09-13T05:22:38.210Z,15.10
2022-09-13T05:25:05.690Z,15.00
2022-09-13T05:27:32.535Z,15.10
2022-09-13T05:29:59.277Z,15.30
2022-09-13T05:32:26.018Z,15.50
2022-09-13T05:34:52.778Z,15.40
2022-09-13T05:37:19.569Z,15.50
2022-09-13T05:40:09.645Z,15.60
2022-09-13T05:42:33.143Z,15.50
2022-09-13T05:44:59.955Z,15.50
2022-09-13T05:47:26.661Z,15.50
2022-09-13T05:50:09.870Z,15.80
2022-09-13T05:52:37.476Z,15.70
2022-09-13T05:55:04.598Z,15.70
2022-09-13T05:57:31.427Z,15.80
2022-09-13T05:59:58.345Z,15.80
2022-09-13T06:02:25.128Z,15.80
2022-09-13T06:04:52.098Z,15.90
2022-09-13T06:07:18.884Z,15.80
2022-09-13T06:09:45.653Z,15.60
2022-09-13T06:12:12.517Z,15.50
2022-09-13T06:14:39.315Z,15.40
2022-09-13T06:17:06.173Z,15.20
2022-09-13T06:19:32.947Z,14.80
2022-09-13T06:21:59.890Z,14.70
2022-09-13T06:24:26.868Z,14.70
2022-09-13T06:26:54.371Z,14.90
2022-09-13T06:29:21.179Z,14.90
2022-09-13T06:31:48.008Z,14.80
2022-09-13T06:34:16.337Z,16.00
2022-09-13T06:36:43.587Z,14.80
2022-09-13T06:39:10.378Z,15.00
2022-09-13T06:41:37.902Z,15.20
2022-09-13T06:44:05.217Z,15.20
2022-09-13T06:46:35.683Z,15.40
2022-09-13T06:49:05.416Z,15.40
2022-09-13T06:51:33.904Z,15.60
2022-09-13T06:54:01.306Z,15.60
2022-09-13T06:56:33.564Z,15.40
2022-09-13T06:59:04.893Z,15.10
2022-09-13T07:01:32.733Z,15.20
2022-09-13T07:04:05.639Z,15.40
2022-09-13T07:06:35.190Z,16.90
2022-09-13T07:09:04.429Z,15.40
2022-09-13T07:11:35.880Z,15.30
2022-09-13T07:14:02.979Z,15.30
2022-09-13T07:16:35.423Z,15.40
2022-09-13T07:19:07.948Z,15.60
2022-09-13T07:21:35.605Z,15.90
2022-09-13T07:24:02.583Z,16.00
2022-09-13T07:26:29.471Z,16.00
2022-09-13T07:28:59.648Z,15.90
2022-09-13T07:31:31.999Z,16.10
2022-09-13T07:34:04.085Z,16.00
2022-09-13T07:36:32.340Z,15.90
2022-09-13T07:38:59.327Z,16.10
2022-09-13T07:41:28.310Z,15.90
2022-09-13T07:43:56.905Z,16.00
2022-09-13T07:46:26.413Z,15.90
2022-09-13T07:48:55.859Z,15.90
2022-09-13T07:51:25.342Z,15.90
2022-09-13T07:53:57.552Z,15.70
2022-09-13T07:56:27.887Z,15.60
2022-09-13T07:58:55.606Z,15.60
2022-09-13T08:01:26.267Z,15.80
2022-09-13T08:04:08.066Z,15.90
2022-09-13T08:06:36.142Z,16.00
2022-09-13T08:09:04.525Z,16.20
2022-09-13T08:11:35.028Z,16.20
2022-09-13T08:14:02.853Z,16.50
2022-09-13T08:16:31.071Z,16.30
2022-09-13T08:19:00.796Z,16.20
2022-09-13T08:21:33.349Z,16.20
2022-09-13T08:24:00.788Z,16.30
2022-09-13T08:26:29.012Z,16.40
2022-09-13T08:28:58.671Z,16.80
2022-09-13T08:31:25.966Z,16.90
2022-09-13T08:33:53.532Z,16.90
2022-09-13T08:36:20.883Z,17.10
2022-09-13T08:38:52.953Z,17.00
2022-09-13T08:41:48.127Z,16.70
2022-09-13T08:44:41.866Z,17.00
2022-09-13T08:47:32.104Z,17.10
2022-09-13T08:50:10.986Z,17.00
2022-09-13T08:56:38.720Z,17.20
2022-09-13T08:59:14.193Z,16.80
2022-09-13T09:01:47.651Z,16.60
2022-09-13T09:04:39.027Z,16.70
2022-09-13T09:07:15.793Z,16.90
2022-09-13T09:10:05.806Z,16.80
2022-09-13T09:13:02.921Z,16.90
2022-09-13T09:15:36.282Z,17.00
2022-09-13T09:18:24.049Z,17.20
2022-09-13T09:21:00.038Z,17.60
2022-09-13T09:23:40.413Z,17.50
2022-09-13T09:26:26.537Z,17.30
2022-09-13T09:28:58.400Z,17.40
2022-09-13T09:31:37.433Z,17.40
2022-09-13T09:34:42.793Z,17.50
2022-09-13T09:37:17.124Z,17.70
2022-09-13T09:39:44.748Z,17.70
2022-09-13T09:42:22.499Z,17.50
2022-09-13T09:44:53.100Z,17.10
2022-09-13T09:47:29.236Z,17.30
2022-09-13T09:50:09.247Z,17.60
2022-09-13T09:52:51.457Z,18.00
2022-09-13T09:55:31.044Z,18.50
2022-09-13T09:58:19.158Z,18.80
2022-09-13T10:00:55.393Z,18.80
2022-09-13T10:03:27.903Z,19.00
2022-09-13T10:06:18.526Z,19.30
2022-09-13T10:08:56.868Z,19.20
2022-09-13T10:11:27.215Z,18.90
2022-09-13T10:14:03.191Z,18.60
2022-09-13T10:16:31.425Z,18.50
2022-09-13T10:19:25.546Z,18.50
2022-09-13T10:22:18.912Z,18.90
2022-09-13T10:24:46.057Z,18.60
2022-09-13T10:27:42.762Z,18.90
2022-09-13T10:30:32.414Z,18.70
2022-09-13T10:32:59.427Z,18.40
2022-09-13T10:35:27.178Z,18.80
2022-09-13T10:37:54.154Z,18.90
2022-09-13T10:40:39.622Z,19.10
2022-09-13T10:43:16.099Z,19.40
2022-09-13T10:45:42.999Z,19.70
2022-09-13T10:48:20.282Z,19.90
2022-09-13T10:51:21.257Z,20.30
2022-09-13T10:53:48.487Z,20.20
2022-09-13T10:56:25.199Z,20.00
2022-09-13T10:59:12.441Z,19.90
2022-09-13T11:02:06.655Z,20.40
2022-09-13T11:05:08.146Z,20.10
2022-09-13T11:07:53.337Z,20.50
2022-09-13T11:10:49.941Z,20.50
2022-09-13T11:13:37.656Z,20.50
2022-09-13T11:16:43.726Z,20.40
2022-09-13T11:19:36.449Z,20.40
2022-09-13T11:22:41.340Z,19.80
2022-09-13T11:25:26.487Z,19.90
2022-09-13T11:28:00.007Z,20.10
2022-09-13T11:30:31.012Z,20.10
2022-09-13T11:33:22.057Z,20.00
2022-09-13T11:36:12.000Z,19.70
2022-09-13T11:39:08.389Z,19.50
2022-09-13T11:42:10.384Z,20.00
2022-09-13T11:44:58.347Z,20.50
2022-09-13T11:47:36.232Z,20.20
2022-09-13T11:50:29.464Z,20.00
2022-09-13T11:53:30.225Z,20.00
2022-09-13T11:56:05.757Z,20.20
2022-09-13T11:58:55.639Z,20.40
2022-09-13T12:01:34.190Z,20.30
2022-09-13T12:04:33.584Z,20.40
2022-09-13T12:07:15.642Z,20.70
2022-09-13T12:09:53.816Z,20.70
2022-09-13T12:12:34.273Z,20.70
2022-09-13T12:15:13.854Z,20.20
2022-09-13T12:17:45.350Z,20.10
2022-09-13T12:20:29.404Z,20.90
2022-09-13T12:23:01.258Z,20.30
2022-09-13T12:25:49.383Z,20.40
2022-09-13T12:28:30.242Z,20.90
2022-09-13T12:31:01.429Z,21.10
2022-09-13T12:33:28.687Z,20.80
2022-09-13T12:36:23.199Z,20.70
2022-09-13T12:39:01.182Z,20.50
2022-09-13T12:41:57.104Z,20.60
2022-09-13T12:44:38.998Z,20.60
2022-09-13T12:47:39.712Z,20.50
2022-09-13T12:50:41.817Z,20.90
2022-09-13T12:53:31.086Z,20.90
2022-09-13T12:56:19.489Z,21.20
2022-09-13T12:59:08.017Z,21.40
2022-09-13T13:01:35.008Z,21.00
2022-09-13T13:04:14.629Z,20.50
2022-09-13T13:06:56.569Z,20.60
2022-09-13T13:09:44.675Z,21.00
2022-09-13T13:12:36.783Z,21.70
2022-09-13T13:15:27.287Z,21.60
2022-09-13T13:17:55.505Z,21.60
2022-09-13T13:20:53.670Z,21.70
2022-09-13T13:23:33.106Z,21.80
2022-09-13T13:26:05.637Z,21.70
2022-09-13T13:28:44.846Z,21.90
2022-09-13T13:31:31.615Z,22.10
2022-09-13T13:34:01.330Z,22.40
2022-09-13T13:36:42.149Z,22.10
2022-09-13T13:39:29.119Z,22.10
2022-09-13T13:41:57.116Z,22.00
2022-09-13T13:44:23.916Z,22.40
2022-09-13T13:47:08.946Z,22.70
2022-09-13T13:49:38.857Z,21.90
2022-09-13T13:52:09.078Z,21.70
2022-09-13T13:54:58.737Z,21.40
2022-09-13T13:57:35.637Z,21.20
2022-09-13T14:00:26.967Z,21.50
2022-09-13T14:03:18.438Z,21.90
2022-09-13T14:06:12.371Z,21.50
2022-09-13T14:11:26.259Z,21.60
2022-09-13T14:14:15.394Z,21.50
2022-09-13T14:16:42.215Z,22.00
2022-09-13T14:19:15.001Z,22.00
2022-09-13T14:21:42.540Z,21.90
2022-09-13T14:24:22.748Z,21.80
2022-09-13T14:26:57.413Z,21.50
2022-09-13T14:29:27.441Z,21.80
2022-09-13T14:32:02.343Z,22.10
2022-09-13T14:34:32.117Z,22.10
2022-09-13T14:37:02.446Z,22.60
2022-09-13T14:39:30.543Z,23.20
2022-09-13T14:42:16.357Z,23.00
2022-09-13T14:44:47.978Z,23.00
2022-09-13T14:47:29.804Z,23.10
2022-09-13T14:50:16.081Z,23.00
2022-09-13T14:52:52.321Z,23.20
2022-09-13T14:55:25.984Z,23.20
2022-09-13T14:57:58.523Z,23.70
2022-09-13T15:00:27.127Z,22.90
2022-09-13T15:03:01.831Z,23.10
2022-09-13T15:05:32.657Z,23.10
2022-09-13T15:07:59.866Z,23.30
2022-09-13T15:10:31.615Z,23.30
2022-09-13T15:12:58.371Z,22.70
2022-09-13T15:15:26.976Z,22.50
2022-09-13T15:18:04.925Z,22.10
2022-09-13T15:20:49.411Z,22.30
2022-09-13T15:23:20.490Z,22.90
2022-09-13T15:26:12.879Z,23.10
2022-09-13T15:28:56.802Z,23.20
2022-09-13T15:31:28.810Z,23.20
2022-09-13T15:34:17.618Z,23.50
2022-09-13T15:37:08.817Z,22.70
2022-09-13T15:39:48.416Z,22.10
2022-09-13T15:42:16.874Z,22.20
2022-09-13T15:44:44.034Z,22.10
2022-09-13T15:47:16.220Z,22.20
2022-09-13T15:49:50.068Z,22.20
2022-09-13T15:52:18.647Z,22.00
2022-09-13T15:54:49.269Z,22.10
2022-09-13T15:57:26.052Z,22.10
2022-09-13T15:59:54.362Z,22.10
2022-09-13T16:02:29.130Z,21.70
2022-09-13T16:04:56.671Z,21.20
2022-09-13T16:07:25.145Z,21.40
2022-09-13T16:09:52.557Z,21.50
2022-09-13T16:12:22.125Z,21.10
2022-09-13T16:14:49.192Z,21.30
2022-09-13T16:17:22.573Z,21.50
2022-09-13T16:19:49.515Z,21.40
2022-09-13T16:22:17.021Z,21.50
2022-09-13T16:24:43.791Z,21.30
2022-09-13T16:27:13.649Z,21.30
2022-09-13T16:29:41.286Z,21.10
2022-09-13T16:32:08.108Z,21.30
2022-09-13T16:34:35.048Z,21.50
2022-09-13T16:37:02.093Z,21.30
2022-09-13T16:39:29.395Z,21.20
2022-09-13T16:41:56.206Z,21.30
2022-09-13T16:44:23.045Z,20.90
2022-09-13T16:46:49.887Z,21.10
2022-09-13T16:49:17.228Z,21.00
2022-09-13T16:51:44.011Z,20.80
2022-09-13T16:54:10.782Z,20.60
2022-09-13T16:56:37.804Z,20.30
2022-09-13T16:59:04.639Z,20.30
2022-09-13T17:01:32.397Z,20.20
2022-09-13T17:03:59.624Z,20.10
2022-09-13T17:06:27.232Z,19.90
2022-09-13T17:09:01.238Z,19.90
2022-09-13T17:11:30.802Z,20.00
2022-09-13T17:13:58.345Z,19.90
2022-09-13T17:16:31.913Z,19.80
2022-09-13T17:19:02.910Z,19.60
2022-09-13T17:21:29.862Z,19.60
2022-09-13T17:23:56.971Z,19.60
2022-09-13T17:26:23.797Z,19.70
2022-09-13T17:28:51.083Z,19.70
2022-09-13T17:31:18.078Z,19.50
2022-09-13T17:33:45.420Z,19.50
2022-09-13T17:36:13.934Z,19.30
2022-09-13T17:38:41.599Z,19.40
2022-09-13T17:41:11.383Z,19.40
2022-09-13T17:43:41.624Z,19.20
2022-09-13T17:46:17.242Z,19.30
2022-09-13T17:48:44.801Z,19.20
2022-09-13T17:51:22.982Z,19.20
2022-09-13T17:53:58.881Z,19.20
2022-09-13T17:56:30.585Z,19.20
2022-09-13T17:59:05.861Z,19.20
2022-09-13T18:01:38.356Z,19.30
2022-09-13T18:04:05.383Z,19.50
2022-09-13T18:06:32.224Z,19.70
2022-09-13T18:08:59.068Z,19.30
2022-09-13T18:11:25.945Z,19.00
2022-09-13T18:13:52.902Z,18.80
2022-09-13T18:16:23.748Z,18.90
2022-09-13T18:18:52.197Z,19.00
2022-09-13T18:21:21.501Z,18.80
2022-09-13T18:23:50.464Z,18.90
2022-09-13T18:26:20.383Z,18.80
2022-09-13T18:28:47.815Z,19.30
2022-09-13T18:31:17.289Z,18.80
2022-09-13T18:33:45.680Z,18.90
2022-09-13T18:36:15.272Z,18.80
2022-09-13T18:38:47.859Z,18.80
2022-09-13T18:41:20.711Z,18.80
2022-09-13T18:43:54.335Z,18.70
2022-09-13T18:46:24.747Z,18.50
2022-09-13T18:48:54.930Z,18.70
2022-09-13T18:51:27.117Z,18.90
2022-09-13T18:53:54.669Z,18.70
2022-09-13T18:56:23.493Z,18.60
2022-09-13T18:58:50.495Z,18.40
2022-09-13T19:01:28.532Z,18.40
2022-09-13T19:03:55.446Z,18.50
2022-09-13T19:06:28.123Z,18.50
2022-09-13T19:08:57.547Z,18.40
2022-09-13T19:11:45.885Z,18.40
2022-09-13T19:14:15.533Z,18.50
2022-09-13T19:16:42.496Z,17.40
2022-09-13T19:19:09.393Z,18.40
2022-09-13T19:21:36.269Z,18.30
2022-09-13T19:24:09.166Z,19.50
2022-09-13T19:26:39.439Z,18.40
2022-09-13T19:29:08.846Z,18.30
2022-09-13T19:31:38.560Z,18.20
2022-09-13T19:34:06.463Z,18.00
2022-09-13T19:36:35.620Z,18.10
2022-09-13T19:39:05.046Z,18.00
2022-09-13T19:41:32.192Z,18.20
2022-09-13T19:44:01.300Z,18.20
2022-09-13T19:46:34.245Z,18.30
2022-09-13T19:49:02.907Z,18.00
2022-09-13T19:51:32.674Z,18.00
2022-09-13T19:54:00.719Z,18.10
2022-09-13T19:56:37.223Z,17.80
2022-09-13T19:59:05.169Z,17.70
2022-09-13T20:01:34.897Z,17.80
2022-09-13T20:04:04.950Z,17.80
2022-09-13T20:06:37.391Z,18.10
2022-09-13T20:09:05.116Z,18.00
2022-09-13T20:11:33.213Z,17.80
2022-09-13T20:14:00.889Z,17.70
2022-09-13T20:16:33.764Z,17.60
2022-09-13T20:19:01.723Z,17.40
2022-09-13T20:21:31.246Z,17.50
2022-09-13T20:24:02.786Z,17.40
2022-09-13T20:26:31.624Z,17.40
2022-09-13T20:29:05.576Z,17.40
2022-09-13T20:31:36.486Z,17.50
2022-09-13T20:34:05.926Z,17.40
2022-09-13T20:36:34.805Z,17.30
2022-09-13T20:39:03.670Z,17.30
2022-09-13T20:41:31.515Z,17.20
2022-09-13T20:43:59.811Z,16.90
2022-09-13T20:46:27.335Z,17.10
2022-09-13T20:48:54.285Z,17.00
2022-09-13T20:51:25.271Z,18.20
2022-09-13T20:54:00.401Z,16.90
2022-09-13T20:56:28.943Z,16.80
2022-09-13T20:59:00.221Z,16.80
2022-09-13T21:01:29.834Z,17.00
2022-09-13T21:03:57.790Z,17.00
2022-09-13T21:06:27.098Z,17.00
2022-09-13T21:08:56.519Z,17.20
2022-09-13T21:11:33.524Z,17.00
2022-09-13T21:14:08.544Z,17.00
2022-09-13T21:16:39.249Z,16.90
2022-09-13T21:19:06.846Z,18.20
2022-09-13T21:21:36.110Z,16.90
2022-09-13T21:24:04.816Z,16.90
2022-09-13T21:26:31.911Z,17.00
2022-09-13T21:28:59.137Z,17.20
2022-09-13T21:31:29.008Z,17.00
2022-09-13T21:33:57.815Z,16.70
2022-09-13T21:36:26.030Z,16.60
2022-09-13T21:38:56.060Z,16.60
2022-09-13T21:41:25.301Z,16.50
2022-09-13T21:43:52.509Z,16.50
2022-09-13T21:46:22.102Z,16.40
2022-09-13T21:49:01.769Z,16.50
2022-09-13T21:51:40.924Z,16.60
2022-09-13T21:54:10.436Z,16.60
2022-09-13T21:56:40.280Z,16.60
2022-09-13T21:59:15.351Z,16.60
2022-09-13T22:01:46.307Z,16.70
2022-09-13T22:04:17.638Z,16.90
2022-09-13T22:06:45.998Z,16.70
2022-09-13T22:09:14.729Z,16.40
2022-09-13T22:11:44.284Z,16.40
2022-09-13T22:14:17.550Z,16.30
2022-09-13T22:16:46.616Z,16.50
2022-09-13T22:19:15.076Z,16.30
2022-09-13T22:21:44.510Z,16.20
2022-09-13T22:24:18.457Z,16.40
2022-09-13T22:26:47.373Z,16.50
2022-09-13T22:29:17.612Z,16.30
2022-09-13T22:31:46.407Z,16.20
2022-09-13T22:34:16.214Z,16.40
2022-09-13T22:36:43.480Z,16.40
2022-09-13T22:39:15.674Z,16.40
2022-09-13T22:41:42.756Z,16.40
2022-09-13T22:44:09.701Z,16.40
2022-09-13T22:46:45.078Z,15.00
2022-09-13T22:49:13.965Z,16.60
2022-09-13T22:51:40.927Z,16.50
2022-09-13T22:54:08.611Z,16.20
2022-09-13T22:56:36.809Z,16.00
2022-09-13T22:59:08.185Z,16.00
2022-09-13T23:01:36.013Z,16.10
2022-09-13T23:04:03.471Z,16.00
2022-09-13T23:06:31.419Z,16.10
2022-09-13T23:09:00.561Z,16.00
2022-09-13T23:11:30.743Z,16.10
2022-09-13T23:14:01.601Z,16.20
2022-09-13T23:16:32.361Z,16.50
2022-09-13T23:19:00.289Z,16.70
2022-09-13T23:21:30.120Z,16.90
2022-09-13T23:23:58.184Z,17.00
2022-09-13T23:26:25.133Z,16.90
2022-09-13T23:28:57.849Z,16.80
2022-09-13T23:31:27.688Z,16.70
2022-09-13T23:33:57.489Z,16.90
2022-09-13T23:36:27.720Z,17.00
2022-09-13T23:38:57.330Z,16.80
2022-09-13T23:41:25.909Z,16.70
2022-09-13T23:43:54.132Z,16.60
2022-09-13T23:46:21.510Z,16.40
2022-09-13T23:48:49.669Z,16.50
2022-09-13T23:51:25.200Z,16.80
2022-09-13T23:53:56.861Z,16.80
2022-09-13T23:56:25.693Z,16.50
2022-09-13T23:58:52.839Z,16.50
